Time,TemperatureF,DewpointF,PressureIn,WindDirection,WindDirectionDegrees,WindSpeedMPH,WindSpeedGustMPH,Humidity,HourlyPrecipIn,Conditions,Clouds,dailyrainin,SolarRadiationWatts/m^2,SoftwareType,DateUTC
2013-06-15 00:00:00,52.0,46.0,-100.00,SSE,164,2.0,6.0,79,-99.99,,,0.00,0.000000,,2013-06-15 07:00:00,
2013-06-15 00:43:00,52.0,46.0,-100.00,SSE,164,2.0,6.0,79,-99.99,,,0.00,0.000000,,2013-06-15 07:43:00,
2013-06-15 00:53:00,52.0,46.0,-100.00,SSE,164,2.0,6.0,79,-99.99,,,0.00,0.000000,,2013-06-15 07:53:00,
2013-06-15 01:00:00,50.0,45.0,-100.00,South,187,2.0,6.0,80,-99.99,,,0.00,0.000000,,2013-06-15 08:00:00,
2013-06-15 01:42:00,50.0,45.0,-100.00,South,187,2.0,6.0,80,-99.99,,,0.00,0.000000,,2013-06-15 08:42:00,
2013-06-15 01:53:00,50.0,45.0,-100.00,South,187,2.0,6.0,80,-99.99,,,0.00,0.000000,,2013-06-15 08:53:00,
2013-06-15 02:00:00,47.0,44.0,-100.00,SSE,161,1.0,3.0,88,-99.99,,,0.00,0.000000,,2013-06-15 09:00:00,
2013-06-15 02:43:00,47.0,44.0,-100.00,SSE,161,1.0,3.0,88,-99.99,,,0.00,0.000000,,2013-06-15 09:43:00,
2013-06-15 02:52:00,47.0,44.0,-100.00,SSE,161,1.0,3.0,88,-99.99,,,0.00,0.000000,,2013-06-15 09:52:00,
2013-06-15 03:00:00,46.0,43.0,-100.00,SSW,209,1.0,2.0,91,-99.99,,,0.00,0.000000,,2013-06-15 10:00:00,
2013-06-15 03:43:00,46.0,43.0,-100.00,SSW,209,1.0,2.0,91,-99.99,,,0.00,0.000000,,2013-06-15 10:43:00,
2013-06-15 03:53:00,46.0,43.0,-100.00,SSW,209,1.0,2.0,91,-99.99,,,0.00,0.000000,,2013-06-15 10:53:00,
2013-06-15 04:00:00,44.0,43.0,-100.00,SSW,197,1.0,2.0,93,-99.99,,,0.00,0.000000,,2013-06-15 11:00:00,
2013-06-15 04:43:00,44.0,43.0,-100.00,SSW,197,1.0,2.0,93,-99.99,,,0.00,0.000000,,2013-06-15 11:43:00,
2013-06-15 04:53:00,44.0,43.0,-100.00,SSW,197,1.0,2.0,93,-99.99,,,0.00,0.000000,,2013-06-15 11:53:00,
2013-06-15 05:00:00,44.0,42.0,-100.00,South,182,1.0,3.0,95,-99.99,,,0.00,0.350000,,2013-06-15 12:00:00,
2013-06-15 05:43:00,44.0,42.0,-100.00,South,182,1.0,3.0,95,-99.99,,,0.00,0.350000,,2013-06-15 12:43:00,
2013-06-15 05:52:00,44.0,42.0,-100.00,South,182,1.0,3.0,95,-99.99,,,0.00,0.350000,,2013-06-15 12:52:00,
2013-06-15 06:00:00,45.0,44.0,-100.00,SSW,194,2.0,4.0,96,-99.99,,,0.00,18.250000,,2013-06-15 13:00:00,
2013-06-15 06:43:00,45.0,44.0,-100.00,SSW,194,2.0,4.0,96,-99.99,,,0.00,18.250000,,2013-06-15 13:43:00,
2013-06-15 06:53:00,45.0,44.0,-100.00,SSW,194,2.0,4.0,96,-99.99,,,0.00,18.250000,,2013-06-15 13:53:00,
2013-06-15 07:00:00,51.0,47.0,-100.00,South,190,1.0,4.0,86,-99.99,,,0.00,187.460007,,2013-06-15 14:00:00,
2013-06-15 07:43:00,51.0,47.0,-100.00,South,190,1.0,4.0,86,-99.99,,,0.00,187.460007,,2013-06-15 14:43:00,
2013-06-15 07:54:00,51.0,47.0,-100.00,South,190,1.0,4.0,86,-99.99,,,0.00,187.460007,,2013-06-15 14:54:00,
2013-06-15 08:00:00,57.0,47.0,-100.00,SE,146,1.0,3.0,70,-99.99,,,0.00,359.000000,,2013-06-15 15:00:00,
2013-06-15 08:43:00,57.0,47.0,-100.00,SE,146,1.0,3.0,70,-99.99,,,0.00,359.000000,,2013-06-15 15:43:00,
2013-06-15 08:53:00,57.0,47.0,-100.00,SE,146,1.0,3.0,70,-99.99,,,0.00,359.000000,,2013-06-15 15:53:00,
2013-06-15 09:00:00,62.0,49.0,-100.00,NNE,12,2.0,6.0,61,-99.99,,,0.00,519.500000,,2013-06-15 16:00:00,
2013-06-15 09:43:00,62.0,49.0,-100.00,NNE,12,2.0,6.0,61,-99.99,,,0.00,519.500000,,2013-06-15 16:43:00,
2013-06-15 09:53:00,62.0,49.0,-100.00,NNE,12,2.0,6.0,61,-99.99,,,0.00,519.500000,,2013-06-15 16:53:00,
2013-06-15 10:00:00,68.0,51.0,-100.00,North,11,4.0,11.0,55,-99.99,,,0.00,674.419983,,2013-06-15 17:00:00,
2013-06-15 10:43:00,68.0,51.0,-100.00,North,11,4.0,11.0,55,-99.99,,,0.00,674.419983,,2013-06-15 17:43:00,
2013-06-15 10:52:00,68.0,51.0,-100.00,North,11,4.0,11.0,55,-99.99,,,0.00,674.419983,,2013-06-15 17:52:00,
2013-06-15 11:00:00,70.0,49.0,-100.00,North,9,5.0,14.0,47,-99.99,,,0.00,800.289978,,2013-06-15 18:00:00,
2013-06-15 11:43:00,70.0,49.0,-100.00,North,9,5.0,14.0,47,-99.99,,,0.00,800.289978,,2013-06-15 18:43:00,
2013-06-15 11:53:00,70.0,49.0,-100.00,North,9,5.0,14.0,47,-99.99,,,0.00,800.289978,,2013-06-15 18:53:00,
2013-06-15 12:00:00,74.0,49.0,-100.00,NNE,12,4.0,10.0,41,-99.99,,,0.00,886.179993,,2013-06-15 19:00:00,
2013-06-15 12:43:00,74.0,49.0,-100.00,NNE,12,4.0,10.0,41,-99.99,,,0.00,886.179993,,2013-06-15 19:43:00,
2013-06-15 12:53:00,74.0,49.0,-100.00,NNE,12,4.0,10.0,41,-99.99,,,0.00,886.179993,,2013-06-15 19:53:00,
2013-06-15 13:00:00,76.0,48.0,-100.00,North,11,3.0,8.0,37,-99.99,,,0.00,781.349976,,2013-06-15 20:00:00,
2013-06-15 13:43:00,76.0,48.0,-100.00,North,11,3.0,8.0,37,-99.99,,,0.00,781.349976,,2013-06-15 20:43:00,
2013-06-15 13:53:00,76.0,48.0,-100.00,North,11,3.0,8.0,37,-99.99,,,0.00,781.349976,,2013-06-15 20:53:00,
2013-06-15 14:00:00,78.0,48.0,-100.00,NNE,12,3.0,11.0,34,-99.99,,,0.00,818.650024,,2013-06-15 21:00:00,
2013-06-15 14:42:00,78.0,48.0,-100.00,NNE,12,3.0,11.0,34,-99.99,,,0.00,818.650024,,2013-06-15 21:42:00,
2013-06-15 14:53:00,78.0,48.0,-100.00,NNE,12,3.0,11.0,34,-99.99,,,0.00,818.650024,,2013-06-15 21:53:00,
2013-06-15 16:00:00,83.0,49.0,-100.00,NNE,32,2.0,7.0,30,-99.99,,,0.00,775.880005,,2013-06-15 23:00:00,
2013-06-15 16:42:00,83.0,49.0,-100.00,NNE,32,2.0,7.0,30,-99.99,,,0.00,775.880005,,2013-06-15 23:42:00,
2013-06-15 16:53:00,83.0,49.0,-100.00,NNE,32,2.0,7.0,30,-99.99,,,0.00,775.880005,,2013-06-15 23:53:00,
2013-06-15 17:00:00,83.0,48.0,-100.00,NE,38,2.0,6.0,29,-99.99,,,0.00,695.929993,,2013-06-16 00:00:00,
2013-06-15 17:43:00,83.0,48.0,-100.00,NE,38,2.0,6.0,29,-99.99,,,0.00,695.929993,,2013-06-16 00:43:00,
2013-06-15 17:52:00,83.0,48.0,-100.00,NE,38,2.0,6.0,29,-99.99,,,0.00,695.929993,,2013-06-16 00:52:00,
2013-06-15 18:00:00,83.0,51.0,-100.00,SSW,213,1.0,4.0,34,-99.99,,,0.00,362.260010,,2013-06-16 01:00:00,
2013-06-15 18:42:00,83.0,51.0,-100.00,SSW,213,1.0,4.0,34,-99.99,,,0.00,362.260010,,2013-06-16 01:42:00,
2013-06-15 18:53:00,83.0,51.0,-100.00,SSW,213,1.0,4.0,34,-99.99,,,0.00,362.260010,,2013-06-16 01:53:00,
2013-06-15 19:00:00,79.0,51.0,-100.00,WSW,250,2.0,5.0,37,-99.99,,,0.00,268.820007,,2013-06-16 02:00:00,
2013-06-15 19:43:00,79.0,51.0,-100.00,WSW,250,2.0,5.0,37,-99.99,,,0.00,268.820007,,2013-06-16 02:43:00,
2013-06-15 19:53:00,79.0,51.0,-100.00,WSW,250,2.0,5.0,37,-99.99,,,0.00,268.820007,,2013-06-16 02:53:00,
2013-06-15 20:00:00,74.0,50.0,-100.00,SSW,201,4.0,11.0,42,-99.99,,,0.00,98.209999,,2013-06-16 03:00:00,
2013-06-15 20:43:00,74.0,50.0,-100.00,SSW,201,4.0,11.0,42,-99.99,,,0.00,98.209999,,2013-06-16 03:43:00,
2013-06-15 20:53:00,74.0,50.0,-100.00,SSW,201,4.0,11.0,42,-99.99,,,0.00,98.209999,,2013-06-16 03:53:00,
2013-06-15 21:00:00,72.0,48.0,-100.00,SSW,204,5.0,14.0,42,-99.99,,,0.00,9.070000,,2013-06-16 04:00:00,
2013-06-15 21:42:00,72.0,48.0,-100.00,SSW,204,5.0,14.0,42,-99.99,,,0.00,9.070000,,2013-06-16 04:42:00,
2013-06-15 21:53:00,72.0,48.0,-100.00,SSW,204,5.0,14.0,42,-99.99,,,0.00,9.070000,,2013-06-16 04:53:00,
2013-06-15 22:00:00,70.0,49.0,-100.00,SSW,211,3.0,9.0,47,-99.99,,,0.00,0.000000,,2013-06-16 05:00:00,
2013-06-15 22:43:00,70.0,49.0,-100.00,SSW,211,3.0,9.0,47,-99.99,,,0.00,0.000000,,2013-06-16 05:43:00,
2013-06-15 22:52:00,70.0,49.0,-100.00,SSW,211,3.0,9.0,47,-99.99,,,0.00,0.000000,,2013-06-16 05:52:00,
2013-06-15 23:00:00,66.0,52.0,-100.00,South,183,2.0,8.0,60,-99.99,,,0.00,0.000000,,2013-06-16 06:00:00,
2013-06-15 23:43:00,66.0,52.0,-100.00,South,183,2.0,8.0,60,-99.99,,,0.00,0.000000,,2013-06-16 06:43:00,
2013-06-15 23:52:00,66.0,52.0,-100.00,South,183,2.0,8.0,60,-99.99,,,0.00,0.000000,,2013-06-16 06:52:00,